Tiempo atmosférico en la estación meteorológica de Cañamero, Cáceres (590 m.)



Fecha
DESCASC
Temp. máxima en grados centígrados (hora)
DESCASC
Temp. mínima en grados centígrados (hora)
DESCASC
Temp. media en grados centígrados
DESCASC
Racha de viento máxima en m/sg (hora)
DESCASC
Velocidad máxima media en intervalos de 10 minutos(hora)
DESCASC
Precipitaciones diarias en mm
DESCASC
Precipitaciones de 00:00 a 06:00 en mm
DESCASC
Precipitaciones de 06:00 a 12:00 en mm
DESCASC
Precipitaciones de 12:00 a 18:00 en mm
DESCASC
Precipitaciones de 18:00 a 24:00 en mm
DESCASC
20-01-2019 12.3 (15:10) 5.2 (22:30) 8.8 6.67 (15:30) 3.89 (07:30) 6.6 6.6 0 0 0
19-01-2019 7.3 (23:20) -0.1 (05:10) 3.6 4.17 (23:20) 2.78 (23:10) 7.6 0 0 2.2 5.4
18-01-2019 8.3 (15:20) 0.4 (00:00) 4.4 6.39 (16:10) 4.17 (15:20) 0 0 0 0 0
17-01-2019 11.1 (14:20) 2.6 (00:00) 6.9 3.89 (15:30) 2.5 (15:40) 0 0 0 0 0
16-01-2019 8 (16:00) 1.7 (00:00) 4.9 4.17 (16:20) 2.5 (15:40) 0 0 0 0 0
15-01-2019 15.1 (13:20) 3.8 (00:00) 9.5 5.28 (05:50) 3.06 (05:50) 0 0 0 0 0
14-01-2019 13.2 (17:10) 2.4 (00:00) 7.8 3.61 (14:20) 2.78 (14:30) 0 0 0 0 0
13-01-2019 12.4 (16:10) 3.2 (00:00) 7.8 3.89 (00:10) 2.22 (00:10) 0 0 0 0 0
12-01-2019 13.1 (16:00) 0.8 (00:00) 7 4.72 (11:10) 2.22 (13:20) 0 0 0 0 0
11-01-2019 10.4 (17:00) -0.4 (00:00) 5 5.56 (13:00) 2.78 (10:30) 0 0 0 0 0
10-01-2019 11.7 (15:50) 3.3 (00:00) 7.5 5.83 (15:20) 2.5 (14:20) 0 0 0 0 0
09-01-2019 14.3 (13:50) 3.4 (00:00) 8.9 3.89 (14:00) 2.78 (14:10) 0 0 0 0 0
08-01-2019 14.7 (13:20) 4.6 (00:00) 9.6 3.89 (02:30) 2.22 (02:30) 0 0 0 0 0
07-01-2019 14.7 (15:40) 1.8 (00:00) 8.2 4.72 (21:30) 2.78 (21:40) 0 0 0 0 0
06-01-2019 12.7 (15:40) 1.1 (00:00) 6.9 5 (22:40) 2.22 (22:30) 0 0 0 0 0
05-01-2019 14 (16:10) 1.8 (00:00) 7.9 3.61 (09:40) 1.94 (14:10) 0 0 0 0 0
04-01-2019 14 (15:00) 4.6 (00:00) 9.3 4.72 (03:10) 2.5 (04:20) 0 0 0 0 0
03-01-2019 13.4 (17:10) 3.7 (00:00) 8.5 6.67 (11:10) 2.78 (10:20) 0 0 0 0 0
02-01-2019 12.8 (15:30) 2.4 (00:00) 7.6 3.61 (22:50) 2.22 (16:10) 0 0 0 0 0
01-01-2019 14.1 (14:30) 3.4 (00:00) 8.8 3.89 (04:10) 2.78 (04:10) 0 0 0 0 0
31-12-2018 17 (16:00) 5.7 (00:00) 11.3 5.28 (02:00) 2.22 (00:10) 0 0 0 0 0
30-12-2018 15.6 (15:30) 5.8 (00:00) 10.7 7.78 (12:10) 3.33 (05:00) 0 0 0 0 0
29-12-2018 13.2 (15:30) 4.5 (00:00) 8.8 7.22 (12:40) 3.06 (10:50) 0 0 0 0 0
28-12-2018 10.2 (14:50) 4.7 (00:00) 7.4 4.17 (06:20) 2.22 (15:20) 0 0 0 0 0
27-12-2018 12.4 (15:30) 5.1 (00:00) 8.7 3.89 (22:10) 2.78 (18:50) 0 0 0 0 0
26-12-2018 15 (14:40) 5.7 (00:00) 10.3 5 (02:00) 3.06 (02:00) 0 0 0 0 0
25-12-2018 17 (16:00) 8 (00:00) 12.5 6.11 (10:30) 2.5 (10:30) 0 0 0 0 0
24-12-2018 14.4 (15:00) 4 (08:50) 9.2 5.28 (12:10) 3.33 (09:20) 0 0 0 0 0
23-12-2018 15 (15:50) 3.7 (00:00) 9.4 6.94 (01:50) 3.33 (01:50) 0.2 0 0 0.2 0

Gráficas

Temp. máximas Temp. mínimas Temp. medias Precipitaciones Rachas de viento máximas Velocidades máximas media en intervalos de 10 minutos

Datos horarios

Fecha y hora oficial Temperatura (ºC) Velocidad del viento (km/h) Dirección del viento Racha (km/h) Dirección de racha Precipitación (mm) Presión (hPa) Tendencia (hPa) Humedad (%)
2019-01-21 23:00:00 3.3 3 Este 9 Nordeste 0 -- -- 76
2019-01-21 22:00:00 2.1 3 Nordeste 6 Nordeste 0 -- -- 86
2019-01-21 21:00:00 3.5 3 Nordeste 5 Nordeste 0 -- -- 86
2019-01-21 20:00:00 4.4 3 Nordeste 5 Nordeste 0 -- -- 82
2019-01-21 19:00:00 7.2 3 Sudoeste 16 Sudoeste 0 -- -- 71
2019-01-21 18:00:00 8.9 10 Sudoeste 19 Sudoeste 0 -- -- 67
2019-01-21 17:00:00 10.2 12 Oeste 18 Oeste 0 -- -- 62
2019-01-21 16:00:00 9.7 11 Oeste 19 Oeste 0 -- -- 66
2019-01-21 15:00:00 10.6 6 Oeste 17 Sudoeste 0 -- -- 61
2019-01-21 14:00:00 9.9 7 Oeste 15 Sudoeste 0 -- -- 65
2019-01-21 13:00:00 9.4 6 Noroeste 23 Sur 0 -- -- 68
2019-01-21 12:00:00 8.3 4 Noroeste 9 Oeste 0 -- -- 69
2019-01-21 11:00:00 6.7 0 Calma 5 Norte 0 -- -- 73
2019-01-21 10:00:00 4.4 4 Norte 8 Noroeste 0 -- -- 81
2019-01-21 09:00:00 2.3 2 Norte 5 Noroeste 0 -- -- 88
2019-01-21 08:00:00 2.3 3 Norte 6 Norte 0 -- -- 90
2019-01-21 07:00:00 2.5 4 Nordeste 7 Norte 0 -- -- 85
2019-01-21 06:00:00 1.8 3 Norte 5 Este 0 -- -- 85
2019-01-21 05:00:00 2.4 0 Calma 8 Nordeste 0 -- -- 81
2019-01-21 04:00:00 3.8 4 Nordeste 12 Nordeste 0 -- -- 75
2019-01-21 03:00:00 4.6 4 Este 13 Este 0 -- -- 75
2019-01-21 02:00:00 4.3 3 Este 14 Norte 0 -- -- 79
2019-01-21 01:00:00 5.8 9 Noroeste 16 Noroeste 0 -- -- 77
2019-01-21 00:00:00 6.5 8 Norte 13 Norte 0 -- -- 74
2019-01-20 23:00:00 6.4 7 Norte 12 Norte 0 -- -- 73
2019-01-20 22:00:00 6.6 4 Norte 13 Noroeste 0 -- -- 72
2019-01-20 21:00:00 6.7 6 Noroeste 9 Noroeste 0 -- -- 72
2019-01-20 20:00:00 6.4 0 Calma 6 Norte 0 -- -- 70
2019-01-20 19:00:00 8.6 3 Norte 14 Norte 0 -- -- 62
2019-01-20 18:00:00 10.4 8 Norte 20 Norte 0 -- -- 55
2019-01-20 17:00:00 11.3 11 Norte 21 Norte 0 -- -- 54
2019-01-20 16:00:00 11.8 10 Nordeste 24 Norte 0 -- -- 50
2019-01-20 15:00:00 11.9 10 Noroeste 18 Noroeste 0 -- -- 57
2019-01-20 14:00:00 11.5 5 Noroeste 19 Nordeste 0 -- -- 58
2019-01-20 13:00:00 11.3 10 Nordeste 24 Nordeste 0 -- -- 58
2019-01-20 12:00:00 11 9 Nordeste 18 Nordeste 0 -- -- 63
2019-01-20 11:00:00 10.1 7 Norte 14 Norte 0 -- -- 67
2019-01-20 10:00:00 8.2 7 Norte 15 Norte 0 -- -- 78
2019-01-20 09:00:00 7.1 8 Nordeste 20 Nordeste 0 -- -- 90
2019-01-20 08:00:00 7 12 Norte 23 Noroeste 0 -- -- 99
2019-01-20 07:00:00 7.6 11 Noroeste 24 Noroeste 0 -- -- 100
2019-01-20 06:00:00 8.4 7 Noroeste 19 Oeste 0.4 -- -- 100
2019-01-20 05:00:00 8.6 13 Oeste 22 Noroeste 0.8 -- -- 100
2019-01-20 04:00:00 8.3 10 Oeste 19 Sudoeste 0.2 -- -- 100
2019-01-20 03:00:00 7.9 10 Oeste 19 Oeste 2.6 -- -- 100
2019-01-20 02:00:00 7.4 13 Oeste 18 Oeste 1.6 -- -- 100
2019-01-20 01:00:00 7.2 8 Oeste 17 Sudoeste 1 -- -- 100
2019-01-20 00:00:00 7.1 9 Oeste 15 Oeste 0.6 -- -- 99
2019-01-19 23:00:00 7 6 Sudoeste 13 Sudoeste 0.4 -- -- 100
2019-01-19 22:00:00 6.4 0 Calma 8 Norte 1 -- -- 99
2019-01-19 21:00:00 5.9 4 Norte 10 Norte 1 -- -- 99
2019-01-19 20:00:00 5.7 0 Calma 6 Nordeste 1 -- -- 99
2019-01-19 19:00:00 5.3 2 Nordeste 5 Sudoeste 1.4 -- -- 98
2019-01-19 18:00:00 5.6 3 Sur 7 Sudoeste 1.4 -- -- 98
2019-01-19 17:00:00 5.3 3 Sudoeste 5 Sudoeste 0.2 -- -- 98
2019-01-19 16:00:00 4.8 4 Oeste 11 Oeste 0.4 -- -- 97
2019-01-19 15:00:00 5 8 Oeste 14 Sudoeste 0 -- -- 96
2019-01-19 14:00:00 5.1 7 Oeste 10 Oeste 0 -- -- 95
2019-01-19 13:00:00 4.7 6 Sudoeste 12 Sudoeste 0.2 -- -- 95
2019-01-19 12:00:00 4.7 6 Sudoeste 10 Oeste 0 -- -- 93
2019-01-19 11:00:00 4.3 7 Oeste 10 Oeste 0 -- -- 94
2019-01-19 10:00:00 3.5 0 Calma 3 Sur 0 -- -- 99
2019-01-19 09:00:00 2.4 0 Calma 2 Sudoeste 0 -- -- 98
2019-01-19 08:00:00 1.6 0 Calma 2 Norte 0 -- -- 98
2019-01-19 07:00:00 0.4 0 Calma 4 Sur 0 -- -- 97
2019-01-19 06:00:00 0.7 0 Calma 4 Sur 0 -- -- 96
2019-01-19 05:00:00 0.1 0 Calma 3 Sur 0 -- -- 91
2019-01-19 04:00:00 1.2 0 Calma 5 Noroeste 0 -- -- 91
2019-01-19 03:00:00 1.2 3 Noroeste 5 Norte 0 -- -- 88
2019-01-19 02:00:00 2.7 4 Norte 9 Norte 0 -- -- 87
2019-01-19 01:00:00 3.3 3 Nordeste 12 Noroeste 0 -- -- 83
2019-01-19 00:00:00 3.4 6 Norte 13 Norte 0 -- -- 83
2019-01-18 23:00:00 2.7 4 Oeste 6 Oeste 0 -- -- 85
2019-01-18 22:00:00 4 2 Norte 10 Sudoeste 0 -- -- 78
2019-01-18 21:00:00 4.9 7 Sudoeste 10 Sudoeste 0 -- -- 77
2019-01-18 20:00:00 5 4 Sudoeste 9 Oeste 0 -- -- 90
2019-01-18 19:00:00 5.8 7 Oeste 13 Oeste 0 -- -- 82
2019-01-18 18:00:00 6.6 7 Sudoeste 18 Sudoeste 0 -- -- 84
2019-01-18 17:00:00 7 10 Sudoeste 23 Sudoeste 0 -- -- 82
2019-01-18 16:00:00 7.6 14 Sudoeste 23 Sudoeste 0 -- -- 79
2019-01-18 15:00:00 7.6 9 Sudoeste 17 Sudoeste 0 -- -- 75
2019-01-18 14:00:00 7.3 11 Sudoeste 17 Sudoeste 0 -- -- 70
2019-01-18 13:00:00 6.9 7 Oeste 12 Oeste 0 -- -- 71
2019-01-18 12:00:00 6.7 3 Noroeste 6 Oeste 0 -- -- 73
2019-01-18 11:00:00 5.7 2 Noroeste 6 Norte 0 -- -- 78
2019-01-18 10:00:00 2.9 0 Calma 4 Norte 0 -- -- 89
2019-01-18 09:00:00 1.4 2 Norte 5 Noroeste 0 -- -- 91
2019-01-18 08:00:00 0.9 0 Calma 4 Noroeste 0 -- -- 87
2019-01-18 07:00:00 1 2 Oeste 3 Noroeste 0 -- -- 89
2019-01-18 06:00:00 1.8 0 Calma 4 Norte 0 -- -- 86
2019-01-18 05:00:00 1.3 0 Calma 4 Noroeste 0 -- -- 83
2019-01-18 04:00:00 2.6 0 Calma 6 Nordeste 0 -- -- 78
2019-01-18 03:00:00 3.7 3 Este 7 Nordeste 0 -- -- 74
2019-01-18 02:00:00 4.6 4 Nordeste 12 Este 0 -- -- 72
2019-01-18 01:00:00 1.9 4 Nordeste 8 Este 0 -- -- 90
2019-01-18 00:00:00 3.5 0 Calma 9 Nordeste 0 -- -- 85
2019-01-17 23:00:00 5.2 4 Nordeste 11 Nordeste 0 -- -- 78
2019-01-17 22:00:00 4.9 3 Nordeste 10 Este 0 -- -- 81
2019-01-17 21:00:00 5.7 5 Nordeste 10 Nordeste 0 -- -- 81
2019-01-17 20:00:00 6 0 Calma 4 Nordeste 0 -- -- 87
2019-01-17 19:00:00 7.3 3 Noroeste 5 Noroeste 0 -- -- 83
2019-01-17 18:00:00 7.9 3 Noroeste 10 Oeste 0 -- -- 82
2019-01-17 17:00:00 8.4 4 Noroeste 10 Oeste 0 -- -- 78
2019-01-17 16:00:00 9.1 4 Sudoeste 14 Oeste 0 -- -- 75
2019-01-17 15:00:00 10.8 4 Sudeste 12 Sudeste 0 -- -- 65
2019-01-17 14:00:00 10.8 4 Sur 13 Sudoeste 0 -- -- 69
2019-01-17 13:00:00 8.7 6 Oeste 12 Noroeste 0 -- -- 84
2019-01-17 12:00:00 7.5 2 Sudeste 9 Noroeste 0 -- -- 87
2019-01-17 11:00:00 6.2 3 Este 9 Sudeste 0 -- -- 91
2019-01-17 10:00:00 3.6 2 Este 8 Este 0 -- -- 98
2019-01-17 09:00:00 2.9 3 Este 6 Este 0 -- -- 96
2019-01-17 08:00:00 3.2 0 Calma 3 Noroeste 0 -- -- 94
2019-01-17 07:00:00 5.2 3 Noroeste 4 Noroeste 0 -- -- 93
2019-01-17 06:00:00 5.6 2 Noroeste 4 Noroeste 0 -- -- 94
2019-01-17 05:00:00 5.8 0 Calma 4 Sudoeste 0 -- -- 93
2019-01-17 04:00:00 5.8 2 Sudoeste 4 Sudoeste 0 -- -- 92
2019-01-17 03:00:00 5.8 0 Calma 4 Sudoeste 0 -- -- 91
2019-01-17 02:00:00 5.9 0 Calma 3 Oeste 0 -- -- 89
2019-01-17 01:00:00 6 4 Oeste 6 Oeste 0 -- -- 88
2019-01-17 00:00:00 5.6 0 Calma 5 Noroeste 0 -- -- 89
2019-01-16 23:00:00 6.1 2 Noroeste 3 Norte 0 -- -- 89
2019-01-16 22:00:00 6 3 Noroeste 7 Oeste 0 -- -- 90
2019-01-16 21:00:00 5.9 0 Calma 8 Oeste 0 -- -- 89
2019-01-16 20:00:00 6.5 5 Oeste 10 Oeste 0 -- -- 86
2019-01-16 19:00:00 6.7 5 Oeste 10 Oeste 0 -- -- 85
2019-01-16 18:00:00 7.1 8 Oeste 12 Oeste 0 -- -- 82
2019-01-16 17:00:00 7.6 8 Sudoeste 15 Sudoeste 0 -- -- 75
2019-01-16 16:00:00 8 7 Sudoeste 14 Sudoeste 0 -- -- 72
2019-01-16 15:00:00 7.3 5 Oeste 9 Sudoeste 0 -- -- 82
2019-01-16 14:00:00 7.2 5 Oeste 9 Oeste 0 -- -- 85
2019-01-16 13:00:00 6.7 3 Noroeste 9 Sudoeste 0 -- -- 91